Parma Heights, Ohio
Current Conditions -  °F | °C
As of 10:51 AM on Thursday 30 Oct 2014 (Local Time) from KCLE Reporting Station
Broken Clouds Broken Clouds  
Wind Chill: 43°   Ceiling: 4500
Heat Index: 46°   Visibility: 10mi
Dew Point: 37°   Wind: 6mph
Humidity: 71%   Direction: NA
Pressure: 30.15"   Gusts: NA
Location:  41.3776°N, 81.7863°W
Report Text: KCLE 301451Z VRB05KT 10SM SCT028 BKN045 08/03 A3015 RMK AO2 SLP214 60000 T00780028 50007 $
Loading
Personal Weather Stations






























Interactive Weather Map
Tropical Storm Tracking
New forecast layout! Learn more

10-Day Weather Forecast

Advertisements
Track Severe Weather on mobile